Time;durP1;ratioP1;P1;durP2;ratioP2;P2;SDS_P1;SDS_P2;PMS_P1;PMS_P2;Temp;Humidity;BMP_temperature;BMP_pressure;BME280_temperature;BME280_humidity;BME280_pressure;Samples;Min_cycle;Max_cycle;Signal;HPM_P1;HPM_P2
2022/03/06 00:02:25;;;;;;;33.35;21.40;;;;;;;;;;5057911;27;100455;-69
2022/03/06 00:04:52;;;;;;;27.35;19.45;;;;;;;;;;5055916;27;101024;-68
2022/03/06 00:07:18;;;;;;;34.47;20.42;;;;;;;;;;5056271;27;100019;-69
2022/03/06 00:09:45;;;;;;;33.08;20.55;;;;;;;;;;5057600;27;100365;-69
2022/03/06 00:12:11;;;;;;;32.13;20.05;;;;;;;;;;5054828;27;100126;-69
2022/03/06 00:14:38;;;;;;;23.42;15.25;;;;;;;;;;5059986;27;100015;-69
2022/03/06 00:17:04;;;;;;;26.23;16.92;;;;;;;;;;5058944;27;100232;-69
2022/03/06 00:19:31;;;;;;;29.92;20.38;;;;;;;;;;5058800;27;99842;-69
2022/03/06 00:21:57;;;;;;;32.88;19.77;;;;;;;;;;5059527;27;100322;-68
2022/03/06 00:24:23;;;;;;;39.00;18.23;;;;;;;;;;5057755;27;99731;-68
2022/03/06 00:26:49;;;;;;;25.65;16.27;;;;;;;;;;5061955;27;99179;-69
2022/03/06 00:29:16;;;;;;;27.65;15.98;;;;;;;;;;5048229;27;101665;-69
2022/03/06 00:31:43;;;;;;;20.80;13.60;;;;;;;;;;5062900;27;100873;-69
2022/03/06 00:34:09;;;;;;;24.95;15.82;;;;;;;;;;5060531;27;100084;-69
2022/03/06 00:36:37;;;;;;;23.08;14.55;;;;;;;;;;5060972;27;100303;-68
2022/03/06 00:39:03;;;;;;;24.80;16.92;;;;;;;;;;5060497;27;99191;-69
2022/03/06 00:41:30;;;;;;;24.92;13.60;;;;;;;;;;5064237;27;100473;-69
2022/03/06 00:43:56;;;;;;;25.25;16.33;;;;;;;;;;5061807;27;100039;-69
2022/03/06 00:46:23;;;;;;;27.25;18.83;;;;;;;;;;5064733;27;99982;-69
2022/03/06 00:48:49;;;;;;;19.65;12.52;;;;;;;;;;5063314;27;100167;-69
2022/03/06 00:51:16;;;;;;;25.80;18.42;;;;;;;;;;5063460;27;99539;-69
2022/03/06 00:53:42;;;;;;;19.58;13.75;;;;;;;;;;5060811;27;99857;-69
2022/03/06 00:56:09;;;;;;;24.75;13.50;;;;;;;;;;5059907;27;101123;-69
2022/03/06 00:58:37;;;;;;;20.05;14.15;;;;;;;;;;5061558;27;99217;-69
2022/03/06 01:01:04;;;;;;;24.80;15.02;;;;;;;;;;5060838;27;100605;-69
2022/03/06 01:03:32;;;;;;;20.90;13.90;;;;;;;;;;5059585;27;98746;-69
2022/03/06 01:05:58;;;;;;;24.20;15.05;;;;;;;;;;5060837;27;100056;-69
2022/03/06 01:08:25;;;;;;;25.08;16.65;;;;;;;;;;5062433;27;99785;-69
2022/03/06 01:10:52;;;;;;;25.92;16.33;;;;;;;;;;5058642;27;99457;-69
2022/03/06 01:13:19;;;;;;;22.77;15.20;;;;;;;;;;5064873;27;98181;-69
2022/03/06 01:15:46;;;;;;;21.58;14.02;;;;;;;;;;5058086;27;101454;-69
2022/03/06 01:18:13;;;;;;;25.60;14.88;;;;;;;;;;5060118;27;98673;-69
2022/03/06 01:20:40;;;;;;;22.45;15.15;;;;;;;;;;5060477;27;99893;-69
2022/03/06 01:23:07;;;;;;;19.67;14.75;;;;;;;;;;5056872;27;99494;-69
2022/03/06 01:25:34;;;;;;;21.40;14.57;;;;;;;;;;5063629;27;98666;-69
2022/03/06 01:28:00;;;;;;;12.90;10.07;;;;;;;;;;5062902;27;99973;-69
2022/03/06 01:30:27;;;;;;;16.30;12.40;;;;;;;;;;5056337;27;100085;-69
2022/03/06 01:32:53;;;;;;;21.42;12.98;;;;;;;;;;5061638;27;99998;-69
2022/03/06 01:35:20;;;;;;;14.48;10.98;;;;;;;;;;5062093;27;100162;-69
2022/03/06 01:37:46;;;;;;;10.20;8.07;;;;;;;;;;5065010;27;98366;-69
2022/03/06 01:40:14;;;;;;;15.43;9.98;;;;;;;;;;5061945;27;101084;-69
2022/03/06 01:42:41;;;;;;;13.60;11.60;;;;;;;;;;5058606;27;100425;-69
2022/03/06 01:45:11;;;;;;;19.67;11.15;;;;;;;;;;5058075;27;100924;-69
2022/03/06 01:47:40;;;;;;;14.32;10.18;;;;;;;;;;5061699;27;100802;-69
2022/03/06 01:50:08;;;;;;;16.65;12.38;;;;;;;;;;5059771;27;101013;-69
2022/03/06 01:52:34;;;;;;;12.80;10.43;;;;;;;;;;5059827;27;99853;-69
2022/03/06 01:55:01;;;;;;;15.40;12.77;;;;;;;;;;5064629;27;99969;-69
2022/03/06 01:57:28;;;;;;;17.90;13.70;;;;;;;;;;5061786;27;98885;-69
2022/03/06 01:59:54;;;;;;;17.02;12.75;;;;;;;;;;5060086;27;100096;-69
2022/03/06 02:02:21;;;;;;;15.45;11.68;;;;;;;;;;5063889;27;99755;-68
2022/03/06 02:04:47;;;;;;;17.88;12.43;;;;;;;;;;5056871;27;99912;-68
2022/03/06 02:07:14;;;;;;;17.52;12.52;;;;;;;;;;5060281;27;100482;-68
2022/03/06 02:09:40;;;;;;;15.50;11.13;;;;;;;;;;5060673;27;100994;-68
2022/03/06 02:12:23;;;;;;;15.75;12.43;;;;;;;;;;5060129;27;100471;-68
2022/03/06 02:14:56;;;;;;;14.93;11.90;;;;;;;;;;5061074;27;100294;-68
2022/03/06 02:17:23;;;;;;;16.40;11.88;;;;;;;;;;5061118;27;99937;-68
2022/03/06 02:20:01;;;;;;;18.20;13.35;;;;;;;;;;5061178;27;100077;-68
2022/03/06 02:22:28;;;;;;;14.65;11.52;;;;;;;;;;5057838;27;99548;-68
2022/03/06 02:24:55;;;;;;;13.40;10.52;;;;;;;;;;5059150;27;100310;-69
2022/03/06 02:27:21;;;;;;;15.98;10.13;;;;;;;;;;5060041;27;99648;-69
2022/03/06 02:29:48;;;;;;;19.52;11.77;;;;;;;;;;5060540;27;100197;-69
2022/03/06 02:32:16;;;;;;;20.15;11.98;;;;;;;;;;5059882;27;100039;-69
2022/03/06 02:34:45;;;;;;;13.02;10.73;;;;;;;;;;5062756;27;100595;-69
2022/03/06 02:37:13;;;;;;;18.30;13.65;;;;;;;;;;5059252;27;100442;-69
2022/03/06 02:39:39;;;;;;;16.05;11.25;;;;;;;;;;5064237;27;98710;-69
2022/03/06 02:42:06;;;;;;;14.93;12.07;;;;;;;;;;5061902;27;100179;-68
2022/03/06 02:44:32;;;;;;;17.50;12.85;;;;;;;;;;5058970;27;100123;-69
2022/03/06 02:46:58;;;;;;;16.42;13.48;;;;;;;;;;5059994;27;100087;-69
2022/03/06 02:49:25;;;;;;;13.45;11.77;;;;;;;;;;5060573;27;100201;-69
2022/03/06 02:51:51;;;;;;;18.42;12.00;;;;;;;;;;5062239;27;98367;-69
2022/03/06 02:54:17;;;;;;;18.45;13.50;;;;;;;;;;5058815;27;99275;-69
2022/03/06 02:56:44;;;;;;;19.98;13.32;;;;;;;;;;5057658;27;100277;-69
2022/03/06 02:59:14;;;;;;;15.65;12.48;;;;;;;;;;5057734;27;99923;-69
2022/03/06 03:01:41;;;;;;;19.85;13.70;;;;;;;;;;5064439;27;102091;-69
2022/03/06 03:04:09;;;;;;;23.55;14.52;;;;;;;;;;5058115;27;99494;-69
2022/03/06 03:06:36;;;;;;;14.05;9.93;;;;;;;;;;5059548;27;100226;-69
2022/03/06 03:09:06;;;;;;;11.07;8.93;;;;;;;;;;5060520;27;100431;-69
2022/03/06 03:11:33;;;;;;;17.70;11.30;;;;;;;;;;5059418;27;98644;-69
2022/03/06 03:13:59;;;;;;;19.60;15.07;;;;;;;;;;5057068;27;100203;-69
2022/03/06 03:16:25;;;;;;;23.20;14.38;;;;;;;;;;5056202;27;98989;-69
2022/03/06 03:18:52;;;;;;;20.50;13.00;;;;;;;;;;5061799;27;100024;-69
2022/03/06 03:21:19;;;;;;;16.95;11.98;;;;;;;;;;5056384;27;99962;-69
2022/03/06 03:23:45;;;;;;;17.40;12.07;;;;;;;;;;5060903;27;102135;-69
2022/03/06 03:26:12;;;;;;;13.40;10.30;;;;;;;;;;5056812;27;99934;-69
2022/03/06 03:28:38;;;;;;;9.20;8.25;;;;;;;;;;5058000;27;99930;-69
2022/03/06 03:31:04;;;;;;;13.65;11.88;;;;;;;;;;5055267;27;99122;-68
2022/03/06 03:33:31;;;;;;;13.73;10.77;;;;;;;;;;5061745;27;100391;-69
2022/03/06 03:35:58;;;;;;;24.67;15.15;;;;;;;;;;5058022;27;100268;-69
2022/03/06 03:38:25;;;;;;;15.43;12.27;;;;;;;;;;5060320;27;99147;-69
2022/03/06 03:40:53;;;;;;;16.50;12.90;;;;;;;;;;5056947;27;99313;-68
2022/03/06 03:43:19;;;;;;;18.63;13.18;;;;;;;;;;5057578;27;99851;-69
2022/03/06 03:45:45;;;;;;;22.67;16.83;;;;;;;;;;5061985;27;99336;-68
2022/03/06 03:48:12;;;;;;;19.75;16.60;;;;;;;;;;5056157;27;100642;-69
2022/03/06 03:50:38;;;;;;;23.02;16.35;;;;;;;;;;5054656;27;100693;-68
2022/03/06 03:53:04;;;;;;;17.70;13.15;;;;;;;;;;5056571;27;100741;-69
2022/03/06 03:55:31;;;;;;;22.30;13.52;;;;;;;;;;5057118;27;100314;-69
2022/03/06 03:57:57;;;;;;;21.50;15.93;;;;;;;;;;5059382;27;99479;-68
2022/03/06 04:00:24;;;;;;;19.45;15.30;;;;;;;;;;5060724;27;100347;-68
2022/03/06 04:02:50;;;;;;;21.65;16.35;;;;;;;;;;5060012;27;99513;-69
2022/03/06 04:05:17;;;;;;;22.60;15.80;;;;;;;;;;5066649;27;97901;-68
2022/03/06 04:07:46;;;;;;;19.88;14.85;;;;;;;;;;5062723;27;101015;-69
2022/03/06 04:10:12;;;;;;;18.02;13.25;;;;;;;;;;5062533;27;98705;-68
2022/03/06 04:12:39;;;;;;;23.33;16.92;;;;;;;;;;5060513;27;101486;-69
2022/03/06 04:15:05;;;;;;;25.77;16.80;;;;;;;;;;5056628;27;100125;-68
2022/03/06 04:17:32;;;;;;;19.23;15.10;;;;;;;;;;5062067;27;99186;-68
2022/03/06 04:19:58;;;;;;;24.58;17.45;;;;;;;;;;5060939;27;101844;-68
2022/03/06 04:22:24;;;;;;;26.90;18.70;;;;;;;;;;5062595;27;100365;-69
2022/03/06 04:24:51;;;;;;;26.58;18.40;;;;;;;;;;5061947;27;99411;-69
2022/03/06 04:27:17;;;;;;;21.10;16.40;;;;;;;;;;5062958;27;101090;-68
2022/03/06 04:29:43;;;;;;;25.90;18.20;;;;;;;;;;5062716;27;98218;-69
2022/03/06 04:32:10;;;;;;;26.92;19.20;;;;;;;;;;5058728;27;99561;-68
2022/03/06 04:34:36;;;;;;;27.67;18.85;;;;;;;;;;5060873;27;100297;-69
2022/03/06 04:37:03;;;;;;;25.42;19.25;;;;;;;;;;5059011;27;100897;-69
2022/03/06 04:39:29;;;;;;;28.10;15.70;;;;;;;;;;5061509;27;100729;-68
2022/03/06 04:41:55;;;;;;;26.35;19.25;;;;;;;;;;5062388;27;100167;-69
2022/03/06 04:44:22;;;;;;;21.55;18.25;;;;;;;;;;5062669;27;99714;-69
2022/03/06 04:46:48;;;;;;;20.92;16.08;;;;;;;;;;5063731;27;99908;-69
2022/03/06 04:49:15;;;;;;;28.48;19.65;;;;;;;;;;5062494;27;100190;-69
2022/03/06 04:51:42;;;;;;;23.27;18.75;;;;;;;;;;5061835;27;102257;-69
2022/03/06 04:54:08;;;;;;;21.92;18.00;;;;;;;;;;5059299;27;99301;-69
2022/03/06 04:56:35;;;;;;;21.15;16.83;;;;;;;;;;5061713;27;99185;-69
2022/03/06 04:59:02;;;;;;;20.73;18.38;;;;;;;;;;5060246;27;100347;-69
2022/03/06 05:01:28;;;;;;;25.58;19.13;;;;;;;;;;5062114;27;100943;-69
2022/03/06 05:03:56;;;;;;;28.17;17.85;;;;;;;;;;5064793;27;98702;-69
2022/03/06 05:06:23;;;;;;;25.17;19.50;;;;;;;;;;5057874;27;100617;-69
2022/03/06 05:08:49;;;;;;;24.17;17.15;;;;;;;;;;5058755;27;99793;-69
2022/03/06 05:11:16;;;;;;;23.42;15.27;;;;;;;;;;5064476;27;98719;-69
2022/03/06 05:13:43;;;;;;;23.95;20.38;;;;;;;;;;5058478;27;100521;-69
2022/03/06 05:16:09;;;;;;;28.80;20.33;;;;;;;;;;5059425;27;99387;-69
2022/03/06 05:18:36;;;;;;;17.10;14.10;;;;;;;;;;5060696;27;98850;-69
2022/03/06 05:21:03;;;;;;;28.73;20.55;;;;;;;;;;5056889;27;100235;-69
2022/03/06 05:23:29;;;;;;;24.60;19.15;;;;;;;;;;5058789;27;99283;-69
2022/03/06 05:25:55;;;;;;;20.65;17.13;;;;;;;;;;5060964;27;99931;-69
2022/03/06 05:28:22;;;;;;;20.83;16.48;;;;;;;;;;5060068;27;99189;-69
2022/03/06 05:30:48;;;;;;;25.88;19.17;;;;;;;;;;5061105;27;98724;-69
2022/03/06 05:33:15;;;;;;;22.33;18.42;;;;;;;;;;5062021;27;100544;-68
2022/03/06 05:35:41;;;;;;;23.65;18.92;;;;;;;;;;5058380;27;98590;-69
2022/03/06 05:38:07;;;;;;;24.80;19.45;;;;;;;;;;5062882;27;100619;-68
2022/03/06 05:40:34;;;;;;;27.35;19.42;;;;;;;;;;5058769;27;99617;-68
2022/03/06 05:43:00;;;;;;;26.30;19.15;;;;;;;;;;5059980;27;97834;-69
2022/03/06 05:45:26;;;;;;;28.13;20.13;;;;;;;;;;5062000;27;99645;-69
2022/03/06 05:47:54;;;;;;;27.40;19.95;;;;;;;;;;5058166;27;101347;-69
2022/03/06 05:50:20;;;;;;;28.52;20.38;;;;;;;;;;5060710;27;100664;-69
2022/03/06 05:52:48;;;;;;;29.23;19.88;;;;;;;;;;5063216;27;100772;-69
2022/03/06 05:55:15;;;;;;;24.77;19.55;;;;;;;;;;5059089;27;101060;-68
2022/03/06 05:57:41;;;;;;;29.25;20.42;;;;;;;;;;5060026;27;102647;-69
2022/03/06 06:00:08;;;;;;;17.25;13.50;;;;;;;;;;5061516;27;100186;-68
2022/03/06 06:02:35;;;;;;;25.45;18.00;;;;;;;;;;5058646;27;100302;-69
2022/03/06 06:05:03;;;;;;;24.02;18.35;;;;;;;;;;5060495;27;100329;-69
2022/03/06 06:07:29;;;;;;;13.75;12.38;;;;;;;;;;5059366;27;99705;-69
2022/03/06 06:09:56;;;;;;;30.55;19.02;;;;;;;;;;5058779;27;100143;-69
2022/03/06 06:12:22;;;;;;;23.52;16.58;;;;;;;;;;5061324;27;100351;-69
2022/03/06 06:14:48;;;;;;;23.02;18.08;;;;;;;;;;5062715;27;101169;-69
2022/03/06 06:17:15;;;;;;;17.83;14.50;;;;;;;;;;5058522;27;100618;-69
2022/03/06 06:19:41;;;;;;;13.18;11.88;;;;;;;;;;5059043;27;100414;-69
2022/03/06 06:22:08;;;;;;;10.85;9.75;;;;;;;;;;5061578;27;100461;-69
2022/03/06 06:24:34;;;;;;;24.13;15.27;;;;;;;;;;5061095;27;100984;-69
2022/03/06 06:27:01;;;;;;;17.50;15.18;;;;;;;;;;5061423;27;100883;-69
2022/03/06 06:29:27;;;;;;;16.67;11.60;;;;;;;;;;5060059;27;100550;-68
2022/03/06 06:31:54;;;;;;;15.30;12.13;;;;;;;;;;5060049;27;101431;-68
2022/03/06 06:34:21;;;;;;;15.50;13.48;;;;;;;;;;5061037;27;100369;-69
2022/03/06 06:36:49;;;;;;;24.35;15.48;;;;;;;;;;5060761;27;99735;-69
2022/03/06 06:39:17;;;;;;;17.90;14.40;;;;;;;;;;5059794;27;100959;-70
2022/03/06 06:41:43;;;;;;;14.95;13.45;;;;;;;;;;5060426;27;100316;-69
2022/03/06 06:44:10;;;;;;;13.40;12.02;;;;;;;;;;5058292;27;101055;-68
2022/03/06 06:46:36;;;;;;;18.60;14.60;;;;;;;;;;5059197;27;100197;-68
2022/03/06 06:49:03;;;;;;;22.95;14.00;;;;;;;;;;5056494;27;100120;-69
2022/03/06 06:51:30;;;;;;;16.75;11.52;;;;;;;;;;5059459;27;99119;-68
2022/03/06 06:53:56;;;;;;;16.98;12.85;;;;;;;;;;5058720;27;100127;-68
2022/03/06 06:56:23;;;;;;;14.85;12.20;;;;;;;;;;5058296;27;99405;-68
2022/03/06 06:58:49;;;;;;;15.65;12.93;;;;;;;;;;5063392;27;100368;-68
2022/03/06 07:01:16;;;;;;;13.98;12.25;;;;;;;;;;5058232;27;98721;-69
2022/03/06 07:03:43;;;;;;;14.00;11.20;;;;;;;;;;5054417;27;99781;-68
2022/03/06 07:06:09;;;;;;;13.20;11.07;;;;;;;;;;5062072;27;100164;-68
2022/03/06 07:08:36;;;;;;;18.00;13.20;;;;;;;;;;5056813;27;99061;-68
2022/03/06 07:11:02;;;;;;;11.05;9.95;;;;;;;;;;5057961;27;101980;-68
2022/03/06 07:13:28;;;;;;;12.30;11.20;;;;;;;;;;5058605;27;100437;-68
2022/03/06 07:15:55;;;;;;;14.70;10.52;;;;;;;;;;5058494;27;100830;-68
2022/03/06 07:18:21;;;;;;;14.93;11.88;;;;;;;;;;5055845;27;101287;-68
2022/03/06 07:20:48;;;;;;;12.63;10.85;;;;;;;;;;5064269;27;99320;-68
2022/03/06 07:23:15;;;;;;;12.05;10.07;;;;;;;;;;5059042;27;99592;-69
2022/03/06 07:25:41;;;;;;;12.65;11.52;;;;;;;;;;5059616;27;99729;-68
2022/03/06 07:28:08;;;;;;;14.32;11.25;;;;;;;;;;5056244;27;100078;-68
2022/03/06 07:30:34;;;;;;;13.55;12.05;;;;;;;;;;5058399;27;100075;-68
2022/03/06 07:33:01;;;;;;;15.73;10.88;;;;;;;;;;5058061;27;99596;-68
2022/03/06 07:35:27;;;;;;;9.57;8.65;;;;;;;;;;5061946;27;98746;-68
2022/03/06 07:37:54;;;;;;;11.05;9.73;;;;;;;;;;5056505;27;101004;-68
2022/03/06 07:40:22;;;;;;;10.95;9.15;;;;;;;;;;5062505;27;99459;-68
2022/03/06 07:42:54;;;;;;;13.10;9.45;;;;;;;;;;5064077;27;98590;-68
2022/03/06 07:45:20;;;;;;;10.10;9.13;;;;;;;;;;5068420;27;99535;-68
2022/03/06 07:47:47;;;;;;;11.35;10.18;;;;;;;;;;5057813;27;98712;-68
2022/03/06 07:50:14;;;;;;;11.80;8.88;;;;;;;;;;5059629;27;100745;-69
2022/03/06 07:52:41;;;;;;;11.65;8.20;;;;;;;;;;5052817;27;100290;-68
2022/03/06 07:55:07;;;;;;;10.25;9.20;;;;;;;;;;5060337;27;99919;-68
2022/03/06 07:57:34;;;;;;;13.23;8.68;;;;;;;;;;5060427;27;99348;-68
2022/03/06 08:00:01;;;;;;;8.85;7.97;;;;;;;;;;5060097;27;99688;-68
2022/03/06 08:02:34;;;;;;;11.20;7.57;;;;;;;;;;5064704;27;98550;-68
2022/03/06 08:05:01;;;;;;;11.65;7.18;;;;;;;;;;5062786;27;100317;-69
2022/03/06 08:07:27;;;;;;;8.27;7.50;;;;;;;;;;5054436;27;98659;-69
2022/03/06 08:09:53;;;;;;;7.18;5.80;;;;;;;;;;5062856;27;100398;-69
2022/03/06 08:12:24;;;;;;;9.48;6.40;;;;;;;;;;5055174;27;100660;-69
2022/03/06 08:14:51;;;;;;;7.32;6.63;;;;;;;;;;5059097;27;100175;-69
2022/03/06 08:17:18;;;;;;;8.68;7.40;;;;;;;;;;5062659;27;99508;-69
2022/03/06 08:19:44;;;;;;;10.18;6.18;;;;;;;;;;5062277;27;99775;-69
2022/03/06 08:22:11;;;;;;;8.05;7.30;;;;;;;;;;5066537;27;99131;-69
2022/03/06 08:24:38;;;;;;;8.85;7.47;;;;;;;;;;5068842;27;99876;-69
2022/03/06 08:27:04;;;;;;;6.47;5.88;;;;;;;;;;5066338;27;98539;-69
2022/03/06 08:29:31;;;;;;;6.13;5.50;;;;;;;;;;5057698;27;99164;-68
2022/03/06 08:31:57;;;;;;;6.47;5.38;;;;;;;;;;5065943;27;100250;-69
2022/03/06 08:34:23;;;;;;;5.85;4.88;;;;;;;;;;5064712;27;98232;-70
2022/03/06 08:36:50;;;;;;;6.28;5.35;;;;;;;;;;5066883;27;100971;-68
2022/03/06 08:39:16;;;;;;;7.22;6.00;;;;;;;;;;5065951;27;99699;-68
2022/03/06 08:41:43;;;;;;;8.02;6.03;;;;;;;;;;5066116;27;100191;-69
2022/03/06 08:44:09;;;;;;;7.28;6.25;;;;;;;;;;5064076;27;99870;-69
2022/03/06 08:46:37;;;;;;;6.53;5.45;;;;;;;;;;5070281;27;100393;-68
2022/03/06 08:49:03;;;;;;;6.80;5.40;;;;;;;;;;5058863;27;100174;-69
2022/03/06 08:51:30;;;;;;;4.47;4.10;;;;;;;;;;5065215;27;100491;-69
2022/03/06 08:53:57;;;;;;;5.78;4.85;;;;;;;;;;5062186;27;98629;-69
2022/03/06 08:56:23;;;;;;;6.07;5.53;;;;;;;;;;5067754;27;100821;-69
2022/03/06 08:58:49;;;;;;;4.53;4.22;;;;;;;;;;5064249;27;99833;-69
2022/03/06 09:01:16;;;;;;;5.57;5.07;;;;;;;;;;5060772;27;99588;-68
2022/03/06 09:03:43;;;;;;;5.57;4.90;;;;;;;;;;5061506;27;99090;-69
2022/03/06 09:06:10;;;;;;;4.47;4.10;;;;;;;;;;5059760;27;101335;-69
2022/03/06 09:08:36;;;;;;;6.15;4.93;;;;;;;;;;5061788;27;100007;-69
2022/03/06 09:11:04;;;;;;;5.78;5.35;;;;;;;;;;5063121;27;100431;-69
2022/03/06 09:13:30;;;;;;;6.30;4.97;;;;;;;;;;5060621;27;100165;-69
2022/03/06 09:15:56;;;;;;;4.88;4.55;;;;;;;;;;5060441;27;99918;-69
2022/03/06 09:18:23;;;;;;;6.35;4.40;;;;;;;;;;5058270;27;100238;-69
2022/03/06 09:20:50;;;;;;;7.10;4.57;;;;;;;;;;5062654;27;98758;-70
2022/03/06 09:23:17;;;;;;;4.90;4.50;;;;;;;;;;5060831;27;99952;-69
2022/03/06 09:25:45;;;;;;;5.20;4.50;;;;;;;;;;5060218;27;100138;-69
2022/03/06 09:28:11;;;;;;;4.82;4.00;;;;;;;;;;5059922;27;99890;-70
2022/03/06 09:30:38;;;;;;;4.30;3.47;;;;;;;;;;5059739;27;101324;-69
2022/03/06 09:33:05;;;;;;;6.10;4.78;;;;;;;;;;5061001;27;100698;-69
2022/03/06 09:35:31;;;;;;;4.70;3.45;;;;;;;;;;5059970;27;99679;-68
2022/03/06 09:37:57;;;;;;;4.93;4.47;;;;;;;;;;5060584;27;100600;-69
2022/03/06 09:40:24;;;;;;;5.70;3.97;;;;;;;;;;5057192;27;98585;-70
2022/03/06 09:42:50;;;;;;;5.10;4.53;;;;;;;;;;5061112;27;99188;-69
2022/03/06 09:45:16;;;;;;;6.07;4.22;;;;;;;;;;5053236;27;99273;-69
2022/03/06 09:47:44;;;;;;;3.50;3.30;;;;;;;;;;5066418;27;97856;-69
2022/03/06 09:50:12;;;;;;;4.25;3.70;;;;;;;;;;5063163;27;98743;-69
2022/03/06 09:52:38;;;;;;;4.85;4.38;;;;;;;;;;5066967;27;100239;-69
2022/03/06 09:55:06;;;;;;;5.85;3.97;;;;;;;;;;5053862;27;100608;-69
2022/03/06 09:57:33;;;;;;;6.05;4.18;;;;;;;;;;5062288;27;100244;-69
2022/03/06 09:59:59;;;;;;;5.05;4.50;;;;;;;;;;5059379;27;98643;-69
2022/03/06 10:02:26;;;;;;;3.83;3.53;;;;;;;;;;5065600;27;100580;-69
2022/03/06 10:04:52;;;;;;;4.82;4.30;;;;;;;;;;5062169;27;99219;-68
2022/03/06 10:07:19;;;;;;;5.43;4.93;;;;;;;;;;5063121;27;98570;-69
2022/03/06 10:09:45;;;;;;;4.55;3.78;;;;;;;;;;5060442;27;100517;-69
2022/03/06 10:12:18;;;;;;;3.50;3.25;;;;;;;;;;5064504;27;98709;-69
2022/03/06 10:14:44;;;;;;;7.30;4.43;;;;;;;;;;5059929;27;98633;-69
2022/03/06 10:17:17;;;;;;;5.20;3.78;;;;;;;;;;5060176;27;99575;-69
2022/03/06 10:19:46;;;;;;;5.30;4.82;;;;;;;;;;5057047;27;99987;-69
2022/03/06 10:22:12;;;;;;;4.90;4.00;;;;;;;;;;5057734;27;99693;-69
2022/03/06 10:25:05;;;;;;;4.15;3.70;;;;;;;;;;5063599;27;100072;-69
2022/03/06 10:27:54;;;;;;;5.35;4.03;;;;;;;;;;5061825;27;99476;-69
2022/03/06 10:30:28;;;;;;;5.55;4.80;;;;;;;;;;5068937;27;100092;-69
2022/03/06 10:32:56;;;;;;;3.60;3.30;;;;;;;;;;5068593;27;100710;-69
2022/03/06 10:35:32;;;;;;;4.65;3.50;;;;;;;;;;5073437;27;99038;-69
2022/03/06 10:37:59;;;;;;;3.88;3.47;;;;;;;;;;5066144;27;98924;-69
2022/03/06 10:40:34;;;;;;;7.65;4.45;;;;;;;;;;5068672;27;98891;-69
2022/03/06 10:43:00;;;;;;;4.65;4.25;;;;;;;;;;5068273;27;100288;-70
2022/03/06 10:45:27;;;;;;;5.55;4.15;;;;;;;;;;5064589;27;100950;-70
2022/03/06 10:47:54;;;;;;;3.72;3.40;;;;;;;;;;5068926;27;98609;-69
2022/03/06 10:50:21;;;;;;;4.25;3.95;;;;;;;;;;5068748;27;99928;-69
2022/03/06 10:52:53;;;;;;;7.40;4.70;;;;;;;;;;5068156;27;100398;-70
2022/03/06 10:55:33;;;;;;;5.10;4.70;;;;;;;;;;5068239;27;98677;-70
2022/03/06 10:57:59;;;;;;;5.22;4.70;;;;;;;;;;5071184;27;99121;-69
2022/03/06 11:00:27;;;;;;;4.47;4.07;;;;;;;;;;5069174;27;98594;-69
2022/03/06 11:02:55;;;;;;;10.38;4.88;;;;;;;;;;5069647;27;100246;-69
2022/03/06 11:05:24;;;;;;;6.43;4.95;;;;;;;;;;5067917;27;100350;-69
2022/03/06 11:07:51;;;;;;;7.07;4.45;;;;;;;;;;5069050;27;98607;-69
2022/03/06 11:10:18;;;;;;;5.93;4.57;;;;;;;;;;5066811;27;99332;-69
2022/03/06 11:12:45;;;;;;;4.10;3.80;;;;;;;;;;5065835;27;99633;-69
2022/03/06 11:15:11;;;;;;;5.35;4.28;;;;;;;;;;5068502;27;98583;-68
2022/03/06 11:17:38;;;;;;;4.45;3.83;;;;;;;;;;5062322;27;99943;-69
2022/03/06 11:20:04;;;;;;;7.00;3.97;;;;;;;;;;5064440;27;101982;-69
2022/03/06 11:22:35;;;;;;;7.22;4.55;;;;;;;;;;5067865;27;100497;-70
2022/03/06 11:25:08;;;;;;;5.40;4.18;;;;;;;;;;5067152;27;99567;-70
2022/03/06 11:28:03;;;;;;;7.25;3.72;;;;;;;;;;5068531;27;97839;-70
2022/03/06 11:30:30;;;;;;;4.63;4.25;;;;;;;;;;5057282;27;100934;-70
2022/03/06 11:33:08;;;;;;;5.60;5.05;;;;;;;;;;5066982;27;100546;-70
2022/03/06 11:35:39;;;;;;;5.53;5.13;;;;;;;;;;5067676;27;99218;-70
2022/03/06 11:38:07;;;;;;;3.88;3.58;;;;;;;;;;5067384;27;100846;-70
2022/03/06 11:40:37;;;;;;;5.70;4.65;;;;;;;;;;5065397;27;100399;-70
2022/03/06 11:43:07;;;;;;;5.28;4.80;;;;;;;;;;5070057;27;98558;-70
2022/03/06 11:45:44;;;;;;;5.40;5.00;;;;;;;;;;5065699;27;99648;-70
2022/03/06 11:48:31;;;;;;;5.57;5.05;;;;;;;;;;5066973;27;98644;-69
2022/03/06 11:51:12;;;;;;;5.88;5.38;;;;;;;;;;5026447;27;99383;-69
2022/03/06 11:53:49;;;;;;;5.68;5.28;;;;;;;;;;5066844;27;99523;-69
2022/03/06 11:56:31;;;;;;;4.80;4.38;;;;;;;;;;5061396;27;98863;-69
2022/03/06 11:58:57;;;;;;;6.75;4.57;;;;;;;;;;5057621;27;100722;-69
2022/03/06 12:01:27;;;;;;;7.65;4.50;;;;;;;;;;5057178;27;100456;-69
2022/03/06 12:03:55;;;;;;;5.28;4.68;;;;;;;;;;5060050;27;99979;-69
2022/03/06 12:06:22;;;;;;;4.90;4.60;;;;;;;;;;5064595;27;100847;-69
2022/03/06 12:08:51;;;;;;;5.13;4.63;;;;;;;;;;5065573;27;98643;-69
2022/03/06 12:11:17;;;;;;;5.35;4.95;;;;;;;;;;5062329;27;99623;-68
2022/03/06 12:13:48;;;;;;;4.82;4.53;;;;;;;;;;5058593;27;101857;-69
2022/03/06 12:16:16;;;;;;;6.53;5.50;;;;;;;;;;5059053;27;99090;-69
2022/03/06 12:19:05;;;;;;;5.78;5.25;;;;;;;;;;5060904;27;100292;-69
2022/03/06 12:21:36;;;;;;;6.03;5.47;;;;;;;;;;5060151;27;100242;-69
2022/03/06 12:24:25;;;;;;;5.28;4.53;;;;;;;;;;5062741;27;100668;-69
2022/03/06 12:26:52;;;;;;;8.95;5.30;;;;;;;;;;5054294;27;101115;-69
2022/03/06 12:29:42;;;;;;;7.05;5.95;;;;;;;;;;5062701;27;100138;-69
2022/03/06 12:32:31;;;;;;;5.47;5.03;;;;;;;;;;5057070;27;100660;-69
2022/03/06 12:34:57;;;;;;;4.97;4.68;;;;;;;;;;5058640;27;100464;-70
2022/03/06 12:37:24;;;;;;;5.28;4.40;;;;;;;;;;5061344;27;98855;-69
2022/03/06 12:39:51;;;;;;;8.35;5.97;;;;;;;;;;5063864;27;100260;-69
2022/03/06 12:42:28;;;;;;;6.20;5.70;;;;;;;;;;5058689;27;100434;-69
2022/03/06 12:45:01;;;;;;;8.00;6.22;;;;;;;;;;5066918;27;99074;-69
2022/03/06 12:47:28;;;;;;;;;;;;;;;;;;5063279;27;99235;-69
2022/03/06 12:49:56;;;;;;;5.40;4.95;;;;;;;;;;5061276;27;129830;-69
2022/03/06 12:52:23;;;;;;;4.43;4.03;;;;;;;;;;5060812;27;99925;-69
2022/03/06 12:54:50;;;;;;;8.93;5.57;;;;;;;;;;5060100;27;99361;-69
2022/03/06 12:57:17;;;;;;;6.97;5.78;;;;;;;;;;5062551;27;100728;-68
2022/03/06 12:59:46;;;;;;;6.63;6.00;;;;;;;;;;5060614;27;99790;-69
2022/03/06 13:02:15;;;;;;;5.18;4.70;;;;;;;;;;5062216;27;99975;-69
2022/03/06 13:04:46;;;;;;;6.45;5.15;;;;;;;;;;5068069;27;98629;-69
2022/03/06 13:07:13;;;;;;;4.75;4.35;;;;;;;;;;5067521;27;99632;-69
2022/03/06 13:09:39;;;;;;;5.35;4.82;;;;;;;;;;5065472;27;98858;-69
2022/03/06 13:12:06;;;;;;;5.13;4.75;;;;;;;;;;5073413;27;98680;-69
2022/03/06 13:14:39;;;;;;;6.70;5.40;;;;;;;;;;5068272;27;100167;-70
2022/03/06 13:17:07;;;;;;;6.85;3.47;;;;;;;;;;5069812;27;100916;-69
2022/03/06 13:19:36;;;;;;;3.42;3.13;;;;;;;;;;5060536;27;100654;-69
2022/03/06 13:22:13;;;;;;;2.95;2.70;;;;;;;;;;5060730;27;99743;-69
2022/03/06 13:24:47;;;;;;;5.90;3.85;;;;;;;;;;5068386;27;100447;-69
2022/03/06 13:27:20;;;;;;;3.10;2.80;;;;;;;;;;5069498;27;99888;-69
2022/03/06 13:30:04;;;;;;;3.15;2.92;;;;;;;;;;5070378;27;100524;-69
2022/03/06 13:32:31;;;;;;;2.42;2.17;;;;;;;;;;5068456;27;98648;-69
2022/03/06 13:34:58;;;;;;;2.90;2.70;;;;;;;;;;5070366;27;99105;-69
2022/03/06 13:37:31;;;;;;;2.42;2.20;;;;;;;;;;5063282;27;98665;-69
2022/03/06 13:39:57;;;;;;;2.90;2.60;;;;;;;;;;5066545;27;100109;-69
2022/03/06 13:42:34;;;;;;;2.80;2.30;;;;;;;;;;5069014;27;101058;-68
2022/03/06 13:45:02;;;;;;;2.30;2.10;;;;;;;;;;5067853;27;98849;-69
2022/03/06 13:47:38;;;;;;;4.47;2.45;;;;;;;;;;5067858;27;99978;-69
2022/03/06 13:50:05;;;;;;;2.67;2.47;;;;;;;;;;5054601;27;99875;-69
2022/03/06 13:52:33;;;;;;;2.25;2.08;;;;;;;;;;5069241;27;98844;-68
2022/03/06 13:55:04;;;;;;;2.55;2.28;;;;;;;;;;5067494;27;99893;-69
2022/03/06 13:57:31;;;;;;;3.72;2.35;;;;;;;;;;5071929;27;99828;-68
2022/03/06 13:59:57;;;;;;;3.22;2.60;;;;;;;;;;5066724;27;99169;-69
2022/03/06 14:02:26;;;;;;;3.00;2.20;;;;;;;;;;5068042;27;99619;-69
2022/03/06 14:04:53;;;;;;;2.75;2.50;;;;;;;;;;5058798;27;99666;-69
2022/03/06 14:07:24;;;;;;;6.13;2.55;;;;;;;;;;5065710;27;100997;-69
2022/03/06 14:09:50;;;;;;;4.10;2.58;;;;;;;;;;5058433;27;100431;-69
2022/03/06 14:12:20;;;;;;;4.78;2.40;;;;;;;;;;5059918;27;98690;-69
2022/03/06 14:14:47;;;;;;;3.35;2.17;;;;;;;;;;5061949;27;99963;-69
2022/03/06 14:17:15;;;;;;;2.22;2.13;;;;;;;;;;5058886;27;100632;-68
2022/03/06 14:19:54;;;;;;;1.75;1.65;;;;;;;;;;5062984;27;99184;-69
2022/03/06 14:22:20;;;;;;;2.33;2.17;;;;;;;;;;5068067;27;100410;-69
2022/03/06 14:24:46;;;;;;;2.33;1.98;;;;;;;;;;5063301;27;99405;-69
2022/03/06 14:27:13;;;;;;;2.63;2.40;;;;;;;;;;5059204;27;99262;-69
2022/03/06 14:29:46;;;;;;;1.90;1.80;;;;;;;;;;5060059;27;100292;-69